
Distance (Route):
Temperature : -19.3°C
Humidity : 11.3%
Pressure : 416.8hPa| Receiver | Date | Latitude | Longitude | Direction | Speed | Altitude | Climb | Temperature | Humidity | Pressure | Voltage | Killtimer | Uptime | BKT | XDATA |
|---|---|---|---|---|---|---|---|---|---|---|---|---|---|---|---|
| LZ4TU-5 | 2026-08-31 01:06:39 | 46.18217 | 20.63673 | 104° | 35km/h | 7280m | -12.2m/s | -19.3°C | 11.3% | 416.8hPa | 2.6V | 00:00:00 | 00:00:00 | 00:00:00 | |
| LZ4TU-5 | 2026-08-31 01:06:33 | 46.18228 | 20.63610 | 105° | 35km/h | 7342m | -12.7m/s | -19.8°C | 10.5% | 413.4hPa | 2.6V | 00:00:00 | 00:00:00 | 00:00:00 | |
| GYPAP8-17 | 2026-08-31 01:06:31 | 46.18232 | 20.63585 | 104° | 37km/h | 7367m | -11.9m/s | -19.9°C | 10.6% | 412.0hPa | 2.6V | 00:00:00 | 00:00:00 | 00:00:00 | |
| LZ4TU-5 | 2026-08-31 01:05:05 | 46.18535 | 20.62291 | 117° | 46km/h | 8443m | -12.3m/s | -28.2°C | 27.3% | 355.6hPa | 2.6V | 00:00:00 | 00:00:00 | 00:00:00 | |
| LZ4TU-5 | 2026-08-31 01:05:02 | 46.18556 | 20.62229 | 120° | 47km/h | 8494m | -13.0m/s | -28.6°C | 32.9% | 353.1hPa | 2.6V | 00:00:00 | 00:00:00 | 00:00:00 | |
| GYPAP8-17 | 2026-08-31 01:04:23 | 46.18786 | 20.61630 | 116° | 57km/h | 8992m | -13.8m/s | -32.3°C | 28.6% | 329.2hPa | 2.6V | 00:00:00 | 00:00:00 | 00:00:00 | |
| GYPAP8-17 | 2026-08-31 01:02:16 | 46.19627 | 20.59050 | 114° | 53km/h | 10736m | -13.8m/s | -47.5°C | 50.6% | 254.9hPa | 2.6V | 08:15:00 | 00:00:00 | 00:00:00 | |
| GYPAP8-17 | 2026-08-31 01:00:04 | 46.20664 | 20.56041 | 122° | 69km/h | 12833m | -18.1m/s | -57.0°C | 6.5% | 183.8hPa | 2.6V | 00:00:00 | 00:00:00 | 00:00:00 | |
| 9A1FER-10 | 2026-08-31 00:58:56 | 46.21091 | 20.54502 | 102° | 53km/h | 14033m | -16.5m/s | -58.8°C | 8.3% | 151.9hPa | 2.6V | 00:00:00 | 02:09:27 | 00:00:00 | |
| 9A1FER-10 | 2026-08-31 00:57:53 | 46.21379 | 20.53055 | 105° | 37km/h | 15194m | -18.7m/s | -57.0°C | 5.4% | 126.2hPa | 2.5V | 00:00:00 | 02:08:24 | 00:00:00 | |
| 9A1FER-10 | 2026-08-31 00:57:38 | 46.21423 | 20.52870 | 98° | 27km/h | 15471m | -18.9m/s | -56.3°C | 4.6% | 120.9hPa | 2.5V | 00:00:00 | 02:08:09 | 00:00:00 | |
| 9A1FER-10 | 2026-08-31 00:57:08 | 46.21361 | 20.52587 | 91° | 35km/h | 16053m | -18.4m/s | -59.6°C | 5.7% | 110.2hPa | 2.5V | 00:00:00 | 02:07:39 | 00:00:00 | |
| GYPAP8-17 | 2026-08-31 00:56:53 | 46.21335 | 20.52411 | 73° | 35km/h | 16333m | -19.9m/s | -57.9°C | 1.7% | 105.5hPa | 2.6V | 00:00:00 | 00:00:00 | 00:00:00 | |
| 9A1FER-10 | 2026-08-31 00:56:37 | 46.21290 | 20.52197 | 91° | 38km/h | 16693m | -21.1m/s | -58.9°C | 5.2% | 99.6hPa | 2.6V | 00:00:00 | 02:07:08 | 00:00:00 | |
| 9A1FER-10 | 2026-08-31 00:56:22 | 46.21281 | 20.51984 | 92° | 42km/h | 17006m | -20.9m/s | -58.3°C | 4.9% | 94.8hPa | 2.6V | 08:20:00 | 02:06:53 | 00:00:00 | |
| LZ4TU-5 | 2026-08-31 00:56:15 | 46.21290 | 20.51887 | 104° | 44km/h | 17121m | -20.0m/s | -58.8°C | 1.8% | 93.1hPa | 2.6V | 00:00:00 | 00:00:00 | 00:00:00 | |
| LZ4TU-5 | 2026-08-31 00:56:11 | 46.21303 | 20.51828 | 112° | 38km/h | 17205m | -21.7m/s | -58.3°C | 1.6% | 91.9hPa | 2.6V | 00:00:00 | 00:00:00 | 00:00:00 | |
| 9A1FER-10 | 2026-08-31 00:56:07 | 46.21325 | 20.51768 | 128° | 26km/h | 17309m | -20.8m/s | -58.3°C | 5.1% | 90.3hPa | 2.6V | 00:00:00 | 02:06:38 | 00:00:00 | |
| 9A1FER-10 | 2026-08-31 00:55:52 | 46.21379 | 20.51660 | 87° | 16km/h | 17623m | -21.3m/s | -57.3°C | 4.7% | 85.9hPa | 2.6V | 00:00:00 | 02:06:23 | 00:00:00 | |
| GYPAP8-17 | 2026-08-31 00:55:47 | 46.21378 | 20.51626 | 97° | 24km/h | 17705m | -20.4m/s | -57.4°C | 1.5% | 84.9hPa | 2.6V | 00:00:00 | 00:00:00 | 00:00:00 | |
| 9A1FER-10 | 2026-08-31 00:55:34 | 46.21380 | 20.51531 | 57° | 22km/h | 17993m | -20.9m/s | -56.6°C | 4.5% | 81.1hPa | 2.6V | 00:00:00 | 02:06:05 | 00:00:00 | |
| 9A1FER-10 | 2026-08-31 00:55:19 | 46.21341 | 20.51428 | 58° | 15km/h | 18318m | -22.8m/s | -56.9°C | 4.6% | 77.1hPa | 2.6V | 00:00:00 | 02:05:50 | 00:00:00 | |
| 9A1FER-10 | 2026-08-31 00:55:04 | 46.21299 | 20.51386 | 81° | 18km/h | 18656m | -21.9m/s | -56.5°C | 4.3% | 73.0hPa | 2.6V | 00:00:00 | 02:05:35 | 00:00:00 | |
| 9A1FER-10 | 2026-08-31 00:54:49 | 46.21285 | 20.51289 | 85° | 9km/h | 18987m | -22.1m/s | -56.8°C | 4.5% | 69.3hPa | 2.6V | 00:00:00 | 02:05:20 | 00:00:00 | |
| 9A1FER-10 | 2026-08-31 00:54:34 | 46.21269 | 20.51252 | 68° | 9km/h | 19319m | -21.7m/s | -57.3°C | 4.9% | 65.7hPa | 2.6V | 00:00:00 | 02:05:05 | 00:00:00 | |
| 9A1FER-10 | 2026-08-31 00:54:19 | 46.21251 | 20.51217 | 341° | 13km/h | 19653m | -23.2m/s | -55.8°C | 4.3% | 62.4hPa | 2.6V | 00:00:00 | 02:04:50 | 00:00:00 | |
| LZ4TU-5 | 2026-08-31 00:54:11 | 46.21234 | 20.51226 | 359° | 11km/h | 19809m | -22.3m/s | -55.1°C | 1.2% | 61.0hPa | 2.6V | 00:00:00 | 00:00:00 | 00:00:00 | |
| 9A1FER-10 | 2026-08-31 00:54:04 | 46.21203 | 20.51205 | 32° | 9km/h | 19986m | -23.6m/s | -55.7°C | 4.3% | 59.2hPa | 2.6V | 08:23:00 | 02:04:35 | 00:00:00 | |
| 9A1FER-10 | 2026-08-31 00:53:49 | 46.21173 | 20.51207 | 295° | 11km/h | 20330m | -26.2m/s | -55.7°C | 4.3% | 56.2hPa | 2.6V | 00:00:00 | 02:04:20 | 00:00:00 | |
| 9A1FER-10 | 2026-08-31 00:53:34 | 46.21146 | 20.51235 | 16° | 7km/h | 20695m | -25.6m/s | -55.5°C | 4.2% | 53.1hPa | 2.6V | 00:00:00 | 02:04:05 | 00:00:00 | |
| GYPAP8-17 | 2026-08-31 00:53:32 | 46.21143 | 20.51233 | 40° | 4km/h | 20742m | -23.3m/s | -55.6°C | 1.2% | 52.7hPa | 2.6V | 00:00:00 | 00:00:00 | 00:00:00 | |
| 9A1FER-10 | 2026-08-31 00:53:19 | 46.21157 | 20.51225 | 22° | 7km/h | 21075m | -26.4m/s | -55.4°C | 4.2% | 50.0hPa | 2.6V | 00:00:00 | 02:03:50 | 00:00:00 | |
| 9A1FER-10 | 2026-08-31 00:53:04 | 46.21129 | 20.51226 | 42° | 7km/h | 21469m | -26.0m/s | -55.8°C | 4.4% | 47.0hPa | 2.6V | 00:00:00 | 02:03:35 | 00:00:00 | |
| 9A1FER-10 | 2026-08-31 00:52:49 | 46.21129 | 20.51227 | 251° | 15km/h | 21829m | -24.4m/s | -55.0°C | 4.2% | 44.4hPa | 2.6V | 00:00:00 | 02:03:20 | 00:00:00 | |
| 9A1FER-10 | 2026-08-31 00:52:34 | 46.21125 | 20.51291 | 337° | 11km/h | 22186m | -21.8m/s | -54.3°C | 4.0% | 41.9hPa | 2.6V | 00:00:00 | 02:03:05 | 00:00:00 | |
| GYPAP8-17 | 2026-08-31 00:52:30 | 46.21114 | 20.51299 | 331° | 15km/h | 22256m | -26.0m/s | -54.2°C | 1.1% | 41.5hPa | 2.7V | 00:00:00 | 00:00:00 | 00:00:00 | |
| 9A1FER-10 | 2026-08-31 00:52:19 | 46.21120 | 20.51325 | 240° | 16km/h | 22557m | -26.6m/s | -54.6°C | 4.1% | 39.6hPa | 2.7V | 00:00:00 | 02:02:50 | 00:00:00 | |
| 9A1FER-10 | 2026-08-31 00:52:04 | 46.21123 | 20.51406 | 304° | 16km/h | 22946m | -25.8m/s | -54.5°C | 4.0% | 37.3hPa | 2.7V | 00:00:00 | 02:02:35 | 00:00:00 | |
| 9A1FER-10 | 2026-08-31 00:51:49 | 46.21066 | 20.51430 | 24° | 9km/h | 23320m | -26.4m/s | -54.6°C | 4.1% | 35.2hPa | 2.7V | 08:25:00 | 02:02:20 | 00:00:00 | |
| LZ4TU-5 | 2026-08-31 00:51:41 | 46.21049 | 20.51412 | 337° | 5km/h | 23496m | -25.9m/s | -55.3°C | 1.2% | 34.2hPa | 2.6V | 00:00:00 | 00:00:00 | 00:00:00 | |
| 9A1FER-10 | 2026-08-31 00:51:34 | 46.21042 | 20.51429 | 323° | 5km/h | 23693m | -23.1m/s | -54.9°C | 4.3% | 33.1hPa | 2.6V | 00:00:00 | 02:02:05 | 00:00:00 | |
| 9A1FER-3 | 2026-08-31 00:51:03 | 46.21024 | 20.51438 | 137° | 9km/h | 24481m | -28.8m/s | -53.7°C | 4.1% | 29.3hPa | 2.6V | 00:00:00 | 02:01:34 | 00:00:00 | |
| 9A1FER-10 | 2026-08-31 00:50:49 | 46.20999 | 20.51426 | 36° | 13km/h | 24862m | -27.5m/s | -52.7°C | 4.0% | 27.7hPa | 2.6V | 00:00:00 | 02:01:20 | 00:00:00 | |
| 9A1FER-3 | 2026-08-31 00:50:41 | 46.20996 | 20.51405 | 160° | 13km/h | 25095m | -30.1m/s | -51.8°C | 3.7% | 26.6hPa | 2.6V | 00:00:00 | 02:01:12 | 00:00:00 | |
| 9A1FER-10 | 2026-08-31 00:50:30 | 46.21026 | 20.51420 | 267° | 7km/h | 25400m | -27.0m/s | -51.7°C | 3.8% | 25.4hPa | 2.6V | 00:00:00 | 02:01:01 | 00:00:00 | |
| 9A1FER-10 | 2026-08-31 00:50:15 | 46.21015 | 20.51422 | 218° | 15km/h | 25821m | -24.6m/s | -50.0°C | 3.5% | 23.8hPa | 2.7V | 00:00:00 | 02:00:46 | 00:00:00 | |
| 9A1FER-10 | 2026-08-31 00:50:00 | 46.21041 | 20.51489 | 313° | 20km/h | 26193m | -25.3m/s | -49.1°C | 3.2% | 22.4hPa | 2.7V | 00:00:00 | 02:00:31 | 00:00:00 | |
| 9A1FER-10 | 2026-08-31 00:49:45 | 46.20990 | 20.51441 | 93° | 9km/h | 26610m | -24.9m/s | -49.4°C | 3.4% | 21.1hPa | 2.7V | 00:00:00 | 02:00:16 | 00:00:00 | |
| LZ4TU-5 | 2026-08-31 00:49:40 | 46.20995 | 20.51430 | 184° | 9km/h | 26711m | -25.0m/s | -49.4°C | 0.9% | 20.8hPa | 2.6V | 00:00:00 | 00:00:00 | 00:00:00 | |
| LZ4TU-5 | 2026-08-31 00:49:36 | 46.21005 | 20.51433 | 212° | 11km/h | 26815m | -27.1m/s | -49.6°C | 0.9% | 20.5hPa | 2.6V | 00:00:00 | 00:00:00 | 00:00:00 | |
| 9A1FER-10 | 2026-08-31 00:49:30 | 46.21014 | 20.51445 | 200° | 5km/h | 27003m | -29.6m/s | -49.0°C | 3.3% | 19.9hPa | 2.6V | 00:00:00 | 02:00:01 | 00:00:00 | |
| 9A1FER-10 | 2026-08-31 00:49:15 | 46.21024 | 20.51423 | 153° | 13km/h | 27450m | -30.6m/s | -48.4°C | 3.2% | 18.5hPa | 2.6V | 00:00:00 | 01:59:46 | 00:00:00 | |
| 9A1FER-3 | 2026-08-31 00:48:01 | 46.20994 | 20.51340 | 12° | 22km/h | 29783m | -34.3m/s | -42.5°C | 2.3% | 13.0hPa | 2.6V | 00:00:00 | 01:58:32 | 08:30:00 | |
| 9A1FER-3 | 2026-08-31 00:47:46 | 46.20936 | 20.51282 | 93° | 5km/h | 30329m | -35.5m/s | -43.8°C | 2.7% | 12.0hPa | 2.7V | 00:00:00 | 01:58:17 | 00:00:00 | |
| GYPAP8-17 | 2026-08-31 00:46:41 | 46.20734 | 20.50998 | 26° | 16km/h | 32056m | 6.5m/s | -41.3°C | 0.6% | 9.2hPa | 2.7V | 00:00:00 | 00:00:00 | 00:00:00 | |
| LZ4TU-5 | 2026-08-31 00:46:38 | 46.20715 | 20.50983 | 30° | 40km/h | 32032m | 7.0m/s | -41.1°C | 0.6% | 9.2hPa | 2.7V | 00:00:00 | 00:00:00 | 00:00:00 | |
| GYPAP8-17 | 2026-08-31 00:45:39 | 46.20565 | 20.50685 | 81° | 24km/h | 31615m | 7.0m/s | -42.6°C | 0.6% | 9.8hPa | 2.7V | 00:00:00 | 00:00:00 | 00:00:00 | |
| LZ4TU-5 | 2026-08-31 00:43:58 | 46.20015 | 20.50210 | 354° | 16km/h | 30903m | 8.0m/s | -43.5°C | 0.7% | 11.0hPa | 2.7V | 00:00:00 | 00:00:00 | 00:00:00 | |
| LZ4TU-5 | 2026-08-31 00:43:54 | 46.19997 | 20.50212 | 9° | 27km/h | 30875m | 8.0m/s | -43.7°C | 0.7% | 11.0hPa | 2.7V | 00:00:00 | 00:00:00 | 00:00:00 | |
| GYPAP8-17 | 2026-08-31 00:41:28 | 46.19598 | 20.49789 | 18° | 22km/h | 29854m | 6.3m/s | -42.9°C | 0.7% | 12.8hPa | 2.7V | 00:00:00 | 00:00:00 | 00:00:00 | |
| 9A1FER-3 | 2026-08-31 00:41:20 | 46.19520 | 20.49756 | 16° | 33km/h | 29791m | 8.4m/s | -42.3°C | 2.5% | 12.9hPa | 2.7V | 00:00:00 | 01:51:51 | 00:00:00 | |
| 9A1FER-3 | 2026-08-31 00:41:04 | 46.19392 | 20.49712 | 11° | 26km/h | 29681m | 5.9m/s | -42.5°C | 2.5% | 13.1hPa | 2.7V | 00:00:00 | 01:51:35 | 00:00:00 | |
| 9A1FER-3 | 2026-08-31 00:40:49 | 46.19295 | 20.49717 | 336° | 18km/h | 29576m | 7.6m/s | -42.6°C | 2.5% | 13.3hPa | 2.7V | 00:00:00 | 01:51:20 | 00:00:00 | |
| 9A1FER-3 | 2026-08-31 00:40:33 | 46.19231 | 20.49752 | 280° | 13km/h | 29474m | 5.7m/s | -42.6°C | 2.4% | 13.5hPa | 2.7V | 00:00:00 | 01:51:04 | 00:00:00 | |
| 9A1FER-3 | 2026-08-31 00:40:18 | 46.19191 | 20.49775 | 174° | 9km/h | 29379m | 7.0m/s | -43.8°C | 2.6% | 13.7hPa | 2.7V | 00:00:00 | 01:50:49 | 00:00:00 | |
| 9A1FER-3 | 2026-08-31 00:40:03 | 46.19208 | 20.49735 | 138° | 15km/h | 29278m | 5.5m/s | -45.0°C | 2.8% | 13.9hPa | 2.7V | 00:00:00 | 01:50:34 | 00:00:00 | |
| 9A1FER-3 | 2026-08-31 00:39:48 | 46.19205 | 20.49682 | 53° | 11km/h | 29182m | 6.8m/s | -45.2°C | 2.8% | 14.1hPa | 2.7V | 00:00:00 | 01:50:19 | 00:00:00 | |
| 9A1FER-3 | 2026-08-31 00:39:33 | 46.19182 | 20.49657 | 48° | 15km/h | 29090m | 4.3m/s | -45.3°C | 2.8% | 14.3hPa | 2.7V | 00:00:00 | 01:50:04 | 08:30:00 | |
| GYPAP8-17 | 2026-08-31 00:39:23 | 46.19175 | 20.49663 | 171° | 2km/h | 29030m | 7.0m/s | -45.8°C | 0.8% | 14.5hPa | 2.6V | 00:00:00 | 00:00:00 | 00:00:00 | |
| 9A1FER-3 | 2026-08-31 00:39:15 | 46.19151 | 20.49642 | 300° | 15km/h | 28972m | 7.3m/s | -46.1°C | 2.9% | 14.6hPa | 2.6V | 00:00:00 | 01:49:46 | 00:00:00 | |
| 9A1FER-3 | 2026-08-31 00:39:00 | 46.19137 | 20.49659 | 196° | 15km/h | 28878m | 7.7m/s | -46.4°C | 2.9% | 14.8hPa | 2.6V | 00:00:00 | 01:49:31 | 00:00:00 | |
| LZ4TU-5 | 2026-08-31 00:38:56 | 46.19152 | 20.49668 | 211° | 26km/h | 28857m | 7.0m/s | -46.4°C | 0.8% | 14.9hPa | 2.6V | 00:00:00 | 00:00:00 | 00:00:00 | |
| 9A1FER-3 | 2026-08-31 00:38:45 | 46.19147 | 20.49658 | 171° | 13km/h | 28780m | 5.8m/s | -46.5°C | 3.0% | 15.0hPa | 2.6V | 00:00:00 | 01:49:16 | 00:00:00 | |
| 9A1FER-3 | 2026-08-31 00:38:30 | 46.19168 | 20.49632 | 247° | 11km/h | 28681m | 7.8m/s | -46.7°C | 2.9% | 15.3hPa | 2.7V | 00:00:00 | 01:49:01 | 00:00:00 | |
| 9A1FER-3 | 2026-08-31 00:38:15 | 46.19168 | 20.49612 | 351° | 11km/h | 28583m | 7.7m/s | -47.4°C | 3.0% | 15.5hPa | 2.7V | 00:00:00 | 01:48:46 | 00:00:00 | |
| 9A1FER-3 | 2026-08-31 00:38:00 | 46.19171 | 20.49613 | 26° | 9km/h | 28485m | 5.0m/s | -47.7°C | 3.1% | 15.7hPa | 2.7V | 00:00:00 | 01:48:31 | 00:00:00 | |
| 9A1FER-3 | 2026-08-31 00:37:45 | 46.19201 | 20.49601 | 142° | 11km/h | 28386m | 7.0m/s | -48.0°C | 3.1% | 16.0hPa | 2.6V | 00:00:00 | 01:48:16 | 00:00:00 | |
| 9A1FER-3 | 2026-08-31 00:37:30 | 46.19215 | 20.49547 | 118° | 9km/h | 28286m | 7.1m/s | -48.5°C | 3.2% | 16.2hPa | 2.6V | 00:00:00 | 01:48:01 | 00:00:00 | |
| 9A1FER-3 | 2026-08-31 00:37:15 | 46.19214 | 20.49512 | 96° | 7km/h | 28187m | 6.1m/s | -48.8°C | 3.2% | 16.5hPa | 2.6V | 00:00:00 | 01:47:46 | 08:30:00 | |
| LZ4TU-5 | 2026-08-31 00:37:14 | 46.19214 | 20.49508 | 88° | 9km/h | 28180m | 7.2m/s | -48.9°C | 0.9% | 16.5hPa | 2.6V | 00:00:00 | 00:00:00 | 00:00:00 | |
| LZ4TU-5 | 2026-08-31 00:37:09 | 46.19213 | 20.49502 | 136° | 4km/h | 28153m | 8.2m/s | -49.1°C | 0.9% | 16.6hPa | 2.6V | 00:00:00 | 00:00:00 | 00:00:00 | |
| 9A1FER-3 | 2026-08-31 00:37:00 | 46.19215 | 20.49474 | 47° | 7km/h | 28085m | 7.6m/s | -49.2°C | 3.3% | 16.7hPa | 2.6V | 00:00:00 | 01:47:31 | 00:00:00 | |
| 9A1FER-3 | 2026-08-31 00:36:45 | 46.19203 | 20.49473 | 66° | 5km/h | 27985m | 7.6m/s | -49.3°C | 3.4% | 17.0hPa | 2.6V | 00:00:00 | 01:47:16 | 00:00:00 | |
| 9A1FER-3 | 2026-08-31 00:36:30 | 46.19189 | 20.49484 | 101° | 7km/h | 27887m | 7.5m/s | -49.1°C | 3.4% | 17.3hPa | 2.6V | 00:00:00 | 01:47:01 | 00:00:00 | |
| 9A1FER-3 | 2026-08-31 00:36:15 | 46.19194 | 20.49473 | 114° | 13km/h | 27786m | 6.7m/s | -48.9°C | 3.3% | 17.5hPa | 2.7V | 00:00:00 | 01:46:46 | 00:00:00 | |
| 9A1FER-3 | 2026-08-31 00:36:00 | 46.19211 | 20.49416 | 122° | 16km/h | 27685m | 6.4m/s | -48.8°C | 3.2% | 17.8hPa | 2.7V | 00:00:00 | 01:46:31 | 00:00:00 | |
| 9A1FER-3 | 2026-08-31 00:35:45 | 46.19254 | 20.49368 | 134° | 13km/h | 27581m | 5.9m/s | -49.1°C | 3.3% | 18.1hPa | 2.7V | 00:00:00 | 01:46:16 | 00:00:00 | |
| 9A1FER-3 | 2026-08-31 00:35:27 | 46.19280 | 20.49325 | 90° | 11km/h | 27459m | 6.2m/s | -49.2°C | 3.4% | 18.4hPa | 2.6V | 00:00:00 | 01:45:58 | 00:00:00 | |
| 9A1FER-3 | 2026-08-31 00:35:10 | 46.19293 | 20.49284 | 60° | 9km/h | 27345m | 5.3m/s | -49.0°C | 3.3% | 18.7hPa | 2.6V | 00:00:00 | 01:45:41 | 00:00:00 | |
| LZ4TU-5 | 2026-08-31 00:35:03 | 46.19291 | 20.49262 | 79° | 4km/h | 27306m | 6.8m/s | -49.2°C | 0.9% | 18.9hPa | 2.6V | 00:00:00 | 00:00:00 | 00:00:00 | |
| LZ4TU-5 | 2026-08-31 00:34:59 | 46.19293 | 20.49260 | 130° | 2km/h | 27280m | 6.0m/s | -49.2°C | 0% | 19.0hPa | 2.6V | 00:00:00 | 00:00:00 | 00:00:00 | |
| LZ4TU-5 | 2026-08-31 00:33:16 | 46.19407 | 20.49173 | 86° | 20km/h | 26596m | 5.5m/s | -49.0°C | 0% | 21.1hPa | 2.6V | 00:00:00 | 00:00:00 | 00:00:00 | |
| GYPAP8-17 | 2026-08-31 00:31:51 | 46.19177 | 20.49067 | 204° | 15km/h | 26050m | 6.9m/s | -49.9°C | 0.9% | 22.9hPa | 2.6V | 00:00:00 | 00:00:00 | 00:00:00 | |
| LZ4TU-5 | 2026-08-31 00:31:27 | 46.19241 | 20.49149 | 219° | 7km/h | 25889m | 6.1m/s | -50.3°C | 0% | 23.5hPa | 2.6V | 00:00:00 | 00:00:00 | 00:00:00 | |
| LZ4TU-5 | 2026-08-31 00:29:45 | 46.19242 | 20.49200 | 187° | 9km/h | 25250m | 6.0m/s | -52.2°C | 0% | 25.9hPa | 2.6V | 00:00:00 | 00:00:00 | 00:00:00 | |
| LZ4TU-5 | 2026-08-31 00:28:08 | 46.19030 | 20.48975 | 6° | 5km/h | 24634m | 6.8m/s | -53.9°C | 0% | 28.5hPa | 2.6V | 00:00:00 | 00:00:00 | 00:00:00 | |
| 9A1FER-3 | 2026-08-31 00:26:41 | 46.18937 | 20.48877 | 347° | 11km/h | 24128m | 5.9m/s | -53.9°C | 4.0% | 30.8hPa | 2.6V | 00:00:00 | 01:37:12 | 08:30:00 | |
| LZ4TU-5 | 2026-08-31 00:26:25 | 46.18928 | 20.48951 | 278° | 13km/h | 24039m | 5.9m/s | -54.0°C | 0% | 31.3hPa | 2.7V | 00:00:00 | 00:00:00 | 00:00:00 | |
| 9A1FER-3 | 2026-08-31 00:26:22 | 46.18925 | 20.48960 | 338° | 7km/h | 24015m | 5.6m/s | -53.8°C | 4.0% | 31.4hPa | 2.7V | 00:00:00 | 01:36:53 | 00:00:00 | |
| 9A1FER-10 | 2026-08-31 00:26:20 | 46.18923 | 20.48962 | 314° | 5km/h | 24002m | 5.0m/s | -53.7°C | 4.0% | 31.4hPa | 2.7V | 00:00:00 | 01:36:51 | 08:30:00 | |
| 9A1FER-3 | 2026-08-31 00:26:07 | 46.18930 | 20.48984 | 136° | 9km/h | 23924m | 7.3m/s | -54.2°C | 4.0% | 31.8hPa | 2.7V | 00:00:00 | 01:36:38 | 00:00:00 | |
| 9A1FER-10 | 2026-08-31 00:26:05 | 46.18933 | 20.48985 | 214° | 9km/h | 23911m | 7.1m/s | -54.3°C | 4.1% | 31.9hPa | 2.7V | 00:00:00 | 01:36:36 | 00:00:00 | |
| 9A1FER-3 | 2026-08-31 00:25:52 | 46.18939 | 20.48990 | 13° | 9km/h | 23833m | 5.1m/s | -54.4°C | 4.2% | 32.3hPa | 2.7V | 00:00:00 | 01:36:23 | 00:00:00 | |
| 9A1FER-10 | 2026-08-31 00:25:49 | 46.18936 | 20.48990 | 300° | 11km/h | 23815m | 4.8m/s | -54.4°C | 4.2% | 32.4hPa | 2.7V | 00:00:00 | 01:36:20 | 00:00:00 | |
| 9A1FER-3 | 2026-08-31 00:25:37 | 46.18909 | 20.48997 | 346° | 9km/h | 23743m | 4.4m/s | -54.2°C | 4.0% | 32.8hPa | 2.7V | 00:00:00 | 01:36:08 | 00:00:00 | |
| 9A1FER-10 | 2026-08-31 00:25:33 | 46.18905 | 20.49012 | 284° | 9km/h | 23721m | 6.0m/s | -54.3°C | 4.1% | 32.9hPa | 2.7V | 00:00:00 | 01:36:04 | 00:00:00 | |
| GYPAP8-17 | 2026-08-31 00:25:31 | 46.18904 | 20.49017 | 289° | 11km/h | 23715m | 6.4m/s | -54.4°C | 1.2% | 33.0hPa | 2.7V | 00:00:00 | 00:00:00 | 00:00:00 | |
| 9A1FER-3 | 2026-08-31 00:25:22 | 46.18894 | 20.49042 | 293° | 15km/h | 23656m | 7.2m/s | -54.3°C | 4.0% | 33.2hPa | 2.7V | 00:00:00 | 01:35:53 | 00:00:00 | |
| 9A1FER-10 | 2026-08-31 00:25:18 | 46.18887 | 20.49059 | 309° | 15km/h | 23631m | 5.1m/s | -54.4°C | 4.1% | 33.3hPa | 2.7V | 00:00:00 | 01:35:49 | 00:00:00 | |
| 9A1FER-3 | 2026-08-31 00:25:07 | 46.18881 | 20.49121 | 266° | 9km/h | 23566m | 7.1m/s | -54.7°C | 4.2% | 33.7hPa | 2.7V | 00:00:00 | 01:35:38 | 00:00:00 | |
| 9A1FER-10 | 2026-08-31 00:25:03 | 46.18879 | 20.49131 | 305° | 9km/h | 23543m | 6.3m/s | -54.7°C | 4.2% | 33.8hPa | 2.7V | 00:00:00 | 01:35:34 | 00:00:00 | |
| 9A1FER-3 | 2026-08-31 00:24:52 | 46.18859 | 20.49154 | 315° | 9km/h | 23476m | 6.3m/s | -54.6°C | 4.2% | 34.1hPa | 2.7V | 00:00:00 | 01:35:23 | 00:00:00 | |
| 9A1FER-10 | 2026-08-31 00:24:48 | 46.18850 | 20.49161 | 39° | 9km/h | 23452m | 5.4m/s | -54.6°C | 4.3% | 34.3hPa | 2.7V | 00:00:00 | 01:35:19 | 00:00:00 | |
| LZ4TU-5 | 2026-08-31 00:24:39 | 46.18836 | 20.49147 | 350° | 9km/h | 23403m | 4.8m/s | -54.4°C | 0% | 34.6hPa | 2.7V | 00:00:00 | 00:00:00 | 00:00:00 | |
| 9A1FER-3 | 2026-08-31 00:24:37 | 46.18830 | 20.49146 | 25° | 13km/h | 23386m | 4.9m/s | -54.3°C | 4.2% | 34.6hPa | 2.7V | 00:00:00 | 01:35:08 | 00:00:00 | |
| LZ4TU-5 | 2026-08-31 00:24:34 | 46.18825 | 20.49143 | 21° | 15km/h | 23374m | 6.8m/s | -54.2°C | 0% | 34.8hPa | 2.7V | 00:00:00 | 00:00:00 | 00:00:00 | |
| 9A1FER-3 | 2026-08-31 00:24:22 | 46.18785 | 20.49128 | 352° | 15km/h | 23297m | 6.9m/s | -53.7°C | 4.0% | 35.1hPa | 2.7V | 00:00:00 | 01:34:53 | 08:30:00 | |
| 9A1FER-10 | 2026-08-31 00:24:18 | 46.18772 | 20.49130 | 353° | 15km/h | 23273m | 4.3m/s | -53.9°C | 4.0% | 35.3hPa | 2.6V | 00:00:00 | 01:34:49 | 00:00:00 | |
| 9A1FER-3 | 2026-08-31 00:24:06 | 46.18728 | 20.49137 | 336° | 11km/h | 23199m | 7.3m/s | -54.2°C | 4.1% | 35.7hPa | 2.6V | 00:00:00 | 01:34:37 | 00:00:00 | |
| LZ4TU-5 | 2026-08-31 00:23:03 | 46.18579 | 20.49356 | 247° | 16km/h | 22830m | 5.5m/s | -53.9°C | 0% | 37.8hPa | 2.6V | 00:00:00 | 00:00:00 | 00:00:00 | |
| LZ4TU-5 | 2026-08-31 00:22:59 | 46.18586 | 20.49376 | 237° | 18km/h | 22806m | 7.0m/s | -53.9°C | 0% | 38.0hPa | 2.6V | 00:00:00 | 00:00:00 | 00:00:00 | |
| 9A1FER-10 | 2026-08-31 00:21:36 | 46.18689 | 20.49646 | 355° | 16km/h | 22306m | 4.8m/s | -54.8°C | 4.2% | 41.0hPa | 2.6V | 00:00:00 | 01:32:07 | 08:30:00 | |
| 9A1FER-10 | 2026-08-31 00:21:21 | 46.18637 | 20.49697 | 354° | 11km/h | 22221m | 6.8m/s | -55.0°C | 4.2% | 41.5hPa | 2.6V | 00:00:00 | 01:31:52 | 00:00:00 | |
| LZ4TU-5 | 2026-08-31 00:21:20 | 46.18637 | 20.49697 | 355° | 9km/h | 22221m | 6.8m/s | -55.1°C | 0% | 41.6hPa | 2.6V | 00:00:00 | 00:00:00 | 00:00:00 | |
| 9A1FER-10 | 2026-08-31 00:21:05 | 46.18626 | 20.49740 | 249° | 13km/h | 22130m | 5.2m/s | -55.0°C | 4.2% | 42.1hPa | 2.6V | 00:00:00 | 01:31:36 | 00:00:00 | |
| 9A1FER-10 | 2026-08-31 00:20:50 | 46.18633 | 20.49800 | 232° | 16km/h | 22049m | 6.5m/s | -55.4°C | 4.2% | 42.7hPa | 2.6V | 00:00:00 | 01:31:21 | 00:00:00 | |
| 9A1FER-10 | 2026-08-31 00:20:33 | 46.18659 | 20.49892 | 271° | 18km/h | 21953m | 5.3m/s | -55.7°C | 4.3% | 43.3hPa | 2.7V | 00:00:00 | 01:31:04 | 00:00:00 | |
| 9A1FER-10 | 2026-08-31 00:20:18 | 46.18685 | 20.49976 | 233° | 11km/h | 21871m | 4.7m/s | -56.2°C | 4.4% | 43.9hPa | 2.7V | 00:00:00 | 01:30:49 | 00:00:00 | |
| 9A1FER-10 | 2026-08-31 00:20:03 | 46.18708 | 20.50007 | 212° | 4km/h | 21789m | 6.0m/s | -56.5°C | 4.6% | 44.5hPa | 2.7V | 00:00:00 | 01:30:34 | 00:00:00 | |
| LZ4TU-5 | 2026-08-31 00:19:39 | 46.18692 | 20.49981 | 2° | 11km/h | 21660m | 6.5m/s | -56.3°C | 0% | 45.4hPa | 2.7V | 00:00:00 | 00:00:00 | 00:00:00 | |
| 9A1FER-10 | 2026-08-31 00:19:31 | 46.18693 | 20.49961 | 114° | 7km/h | 21609m | 5.0m/s | -56.1°C | 4.4% | 45.7hPa | 2.7V | 00:00:00 | 01:30:02 | 00:00:00 | |
| 9A1FER-10 | 2026-08-31 00:19:15 | 46.18695 | 20.49952 | 197° | 5km/h | 21519m | 6.2m/s | -56.3°C | 4.5% | 46.4hPa | 2.7V | 00:00:00 | 01:29:46 | 08:30:00 | |
| 9A1FER-10 | 2026-08-31 00:19:00 | 46.18690 | 20.49968 | 310° | 5km/h | 21433m | 4.9m/s | -56.0°C | 4.5% | 47.0hPa | 2.6V | 00:00:00 | 01:29:31 | 00:00:00 | |
| 9A1FER-10 | 2026-08-31 00:18:45 | 46.18675 | 20.49969 | 322° | 13km/h | 21345m | 5.5m/s | -55.7°C | 4.3% | 47.7hPa | 2.6V | 00:00:00 | 01:29:16 | 00:00:00 | |
| 9A1FER-10 | 2026-08-31 00:18:30 | 46.18632 | 20.50001 | 320° | 13km/h | 21264m | 6.3m/s | -55.6°C | 4.3% | 48.3hPa | 2.6V | 00:00:00 | 01:29:01 | 00:00:00 | |
| 9A1FER-10 | 2026-08-31 00:18:15 | 46.18590 | 20.50028 | 4° | 9km/h | 21176m | 5.5m/s | -55.8°C | 4.5% | 49.0hPa | 2.7V | 00:00:00 | 01:28:46 | 00:00:00 | |
| 9A1FER-10 | 2026-08-31 00:18:00 | 46.18564 | 20.50017 | 69° | 4km/h | 21087m | 5.9m/s | -55.4°C | 4.4% | 49.7hPa | 2.7V | 00:00:00 | 01:28:31 | 00:00:00 | |
| 9A1FER-3 | 2026-08-31 00:17:58 | 46.18564 | 20.50016 | 193° | 4km/h | 21075m | 7.1m/s | -55.3°C | 4.3% | 49.8hPa | 2.7V | 00:00:00 | 01:28:29 | 00:00:00 | |
| 9A1FER-10 | 2026-08-31 00:17:45 | 46.18570 | 20.50006 | 159° | 11km/h | 21001m | 6.4m/s | -55.0°C | 4.1% | 50.3hPa | 2.7V | 00:00:00 | 01:28:16 | 00:00:00 | |
| 9A1FER-10 | 2026-08-31 00:17:30 | 46.18609 | 20.49990 | 125° | 11km/h | 20916m | 4.9m/s | -55.7°C | 4.3% | 51.0hPa | 2.6V | 00:00:00 | 01:28:01 | 00:00:00 | |
| 9A1FER-3 | 2026-08-31 00:17:27 | 46.18615 | 20.49979 | 141° | 11km/h | 20900m | 4.9m/s | -55.6°C | 4.3% | 51.2hPa | 2.6V | 00:00:00 | 01:27:58 | 00:00:00 | |
| 9A1FER-10 | 2026-08-31 00:17:15 | 46.18638 | 20.49952 | 92° | 5km/h | 20836m | 5.0m/s | -55.5°C | 4.3% | 51.6hPa | 2.6V | 00:00:00 | 01:27:46 | 00:00:00 | |
| 9A1FER-3 | 2026-08-31 00:17:12 | 46.18638 | 20.49948 | 103° | 5km/h | 20819m | 6.3m/s | -55.7°C | 4.3% | 51.8hPa | 2.6V | 00:00:00 | 01:27:43 | 00:00:00 | |
| 9A1FER-10 | 2026-08-31 00:17:00 | 46.18635 | 20.49934 | 47° | 9km/h | 20751m | 5.2m/s | -55.6°C | 4.3% | 52.3hPa | 2.6V | 00:00:00 | 01:27:31 | 08:30:00 | |
| 9A1FER-3 | 2026-08-31 00:16:57 | 46.18629 | 20.49933 | 334° | 9km/h | 20734m | 4.8m/s | -55.6°C | 4.3% | 52.5hPa | 2.6V | 00:00:00 | 01:27:28 | 00:00:00 | |
| 9A1FER-10 | 2026-08-31 00:16:45 | 46.18603 | 20.49924 | 16° | 11km/h | 20668m | 6.2m/s | -55.7°C | 4.4% | 53.0hPa | 2.7V | 00:00:00 | 01:27:16 | 00:00:00 | |
| 9A1FER-3 | 2026-08-31 00:16:42 | 46.18595 | 20.49925 | 346° | 11km/h | 20651m | 6.8m/s | -55.6°C | 4.4% | 53.2hPa | 2.7V | 00:00:00 | 01:27:13 | 00:00:00 | |
| 9A1FER-10 | 2026-08-31 00:16:30 | 46.18563 | 20.49924 | 312° | 11km/h | 20586m | 6.7m/s | -55.5°C | 4.3% | 53.7hPa | 2.7V | 00:00:00 | 01:27:01 | 00:00:00 | |
| GYPAP8-17 | 2026-08-31 00:16:26 | 46.18555 | 20.49937 | 306° | 13km/h | 20568m | 6.7m/s | -55.6°C | 1.3% | 54.0hPa | 2.7V | 00:00:00 | 00:00:00 | 00:00:00 | |
| 9A1FER-10 | 2026-08-31 00:16:14 | 46.18535 | 20.49971 | 279° | 9km/h | 20493m | 6.7m/s | -55.5°C | 4.3% | 54.5hPa | 2.7V | 00:00:00 | 01:26:45 | 00:00:00 | |
| LZ4TU-5 | 2026-08-31 00:16:13 | 46.18535 | 20.49971 | 280° | 16km/h | 20493m | 6.8m/s | -55.6°C | 0% | 54.6hPa | 2.6V | 00:00:00 | 00:00:00 | 00:00:00 | |
| 9A1FER-10 | 2026-08-31 00:15:59 | 46.18521 | 20.50017 | 294° | 5km/h | 20408m | 4.0m/s | -55.7°C | 4.3% | 55.3hPa | 2.6V | 00:00:00 | 01:26:30 | 00:00:00 | |
| 9A1FER-10 | 2026-08-31 00:15:44 | 46.18514 | 20.50040 | 277° | 5km/h | 20323m | 5.4m/s | -55.9°C | 4.4% | 56.0hPa | 2.6V | 00:00:00 | 01:26:15 | 00:00:00 | |
| 9A1FER-10 | 2026-08-31 00:15:29 | 46.18512 | 20.50018 | 150° | 7km/h | 20240m | 6.5m/s | -55.7°C | 4.3% | 56.7hPa | 2.6V | 00:00:00 | 01:26:00 | 00:00:00 | |
| 9A1FER-10 | 2026-08-31 00:15:10 | 46.18490 | 20.50040 | 48° | 13km/h | 20138m | 6.5m/s | -55.8°C | 4.3% | 57.7hPa | 2.6V | 00:00:00 | 01:25:41 | 00:00:00 | |
| 9A1FER-10 | 2026-08-31 00:14:55 | 46.18456 | 20.49984 | 31° | 20km/h | 20056m | 5.3m/s | -56.1°C | 4.4% | 58.4hPa | 2.6V | 00:00:00 | 01:25:26 | 00:00:00 | |
| 9A1FER-10 | 2026-08-31 00:14:40 | 46.18390 | 20.49925 | 9° | 16km/h | 19975m | 4.5m/s | -55.9°C | 4.4% | 59.1hPa | 2.6V | 00:00:00 | 01:25:11 | 08:30:00 | |
| LZ4TU-5 | 2026-08-31 00:14:38 | 46.18386 | 20.49924 | 7° | 15km/h | 19970m | 5.6m/s | -55.9°C | 0% | 59.2hPa | 2.6V | 00:00:00 | 00:00:00 | 00:00:00 | |
| LZ4TU-5 | 2026-08-31 00:14:33 | 46.18367 | 20.49918 | 26° | 16km/h | 19943m | 4.3m/s | -55.8°C | 0% | 59.5hPa | 2.6V | 00:00:00 | 00:00:00 | 00:00:00 | |
| 9A1FER-10 | 2026-08-31 00:14:25 | 46.18331 | 20.49897 | 346° | 15km/h | 19896m | 6.8m/s | -55.4°C | 4.1% | 59.9hPa | 2.6V | 00:00:00 | 01:24:56 | 00:00:00 | |
| 9A1FER-10 | 2026-08-31 00:14:10 | 46.18282 | 20.49920 | 314° | 11km/h | 19814m | 5.6m/s | -56.1°C | 0% | 60.7hPa | 2.6V | 00:00:00 | 01:24:41 | 00:00:00 | |
| 9A1FER-10 | 2026-08-31 00:13:51 | 46.18286 | 20.49936 | 77° | 9km/h | 19714m | 5.0m/s | -56.4°C | 0% | 61.6hPa | 2.6V | 00:00:00 | 01:24:22 | 00:00:00 | |
| 9A1FER-10 | 2026-08-31 00:13:36 | 46.18275 | 20.49900 | 38° | 18km/h | 19634m | 6.6m/s | 0°C | 0% | 0hPa | 2.7V | 00:00:00 | 01:24:07 | 00:00:00 | |
| LZ4TU-5 | 2026-08-31 00:13:03 | 46.18212 | 20.49841 | 65° | 4km/h | 19462m | 6.5m/s | -56.0°C | 0% | 64.2hPa | 2.7V | 00:00:00 | 00:00:00 | 00:00:00 | |
| LZ4TU-5 | 2026-08-31 00:12:58 | 46.18210 | 20.49836 | 18° | 2km/h | 19434m | 6.8m/s | -56.0°C | 0% | 64.5hPa | 2.7V | 00:00:00 | 00:00:00 | 00:00:00 | |
| LZ4TU-5 | 2026-08-31 00:11:29 | 46.18090 | 20.49673 | 89° | 15km/h | 18942m | 6.1m/s | -56.1°C | 0% | 69.6hPa | 2.7V | 00:00:00 | 00:00:00 | 00:00:00 | |
| LZ4TU-5 | 2026-08-31 00:11:25 | 46.18089 | 20.49655 | 98° | 13km/h | 18920m | 4.8m/s | -56.2°C | 0% | 69.9hPa | 2.7V | 00:00:00 | 00:00:00 | 00:00:00 | |
| 9A1FER-3 | 2026-08-31 00:11:16 | 46.18077 | 20.49582 | 62° | 24km/h | 18866m | 6.3m/s | -56.3°C | 4.5% | 70.4hPa | 2.7V | 00:00:00 | 01:21:47 | 00:00:00 | |
| 9A1FER-3 | 2026-08-31 00:10:55 | 46.18040 | 20.49420 | 109° | 24km/h | 18750m | 4.6m/s | -56.6°C | 4.4% | 71.7hPa | 2.7V | 00:00:00 | 01:21:26 | 08:30:00 | |
| 9A1FER-3 | 2026-08-31 00:10:38 | 46.18048 | 20.49271 | 90° | 15km/h | 18660m | 6.4m/s | -56.5°C | 4.5% | 72.7hPa | 2.6V | 00:00:00 | 01:21:09 | 00:00:00 | |
| 9A1FER-3 | 2026-08-31 00:10:22 | 46.18044 | 20.49184 | 73° | 9km/h | 18576m | 4.2m/s | -56.1°C | 4.2% | 73.7hPa | 2.6V | 00:00:00 | 01:20:53 | 00:00:00 | |
| 9A1FER-10 | 2026-08-31 00:10:15 | 46.18034 | 20.49152 | 79° | 7km/h | 18537m | 4.8m/s | 0°C | 0% | 0hPa | 2.6V | 00:00:00 | 01:20:46 | 00:00:00 | |
| 9A1FER-3 | 2026-08-31 00:10:07 | 46.18028 | 20.49148 | 31° | 11km/h | 18496m | 4.5m/s | -56.9°C | 4.5% | 74.6hPa | 2.6V | 00:00:00 | 01:20:38 | 00:00:00 | |
| 9A1FER-10 | 2026-08-31 00:10:00 | 46.18023 | 20.49122 | 103° | 15km/h | 18461m | 6.6m/s | 0°C | 0% | 0hPa | 0V | 00:00:00 | 01:20:31 | 00:00:00 | |
| 9A1FER-3 | 2026-08-31 00:09:52 | 46.18027 | 20.49090 | 63° | 20km/h | 18418m | 5.1m/s | -57.3°C | 4.5% | 75.5hPa | 0V | 00:00:00 | 01:20:23 | 00:00:00 | |
| LZ4TU-5 | 2026-08-31 00:09:47 | 46.18025 | 20.49071 | 102° | 20km/h | 18398m | 4.6m/s | -58.0°C | 0% | 75.9hPa | 0V | 00:00:00 | 00:00:00 | 00:00:00 | |
| 9A1FER-10 | 2026-08-31 00:09:45 | 46.18028 | 20.49047 | 104° | 24km/h | 18382m | 5.8m/s | 0°C | 0% | 0hPa | 0V | 00:00:00 | 01:20:16 | 00:00:00 | |
| LZ4TU-5 | 2026-08-31 00:09:42 | 46.18031 | 20.49027 | 102° | 27km/h | 18371m | 4.4m/s | -58.0°C | 0% | 76.2hPa | 0V | 00:00:00 | 00:00:00 | 00:00:00 | |
| 9A1FER-3 | 2026-08-31 00:09:37 | 46.18029 | 20.48980 | 72° | 24km/h | 18340m | 6.4m/s | -57.8°C | 4.9% | 76.5hPa | 0V | 00:00:00 | 01:20:08 | 00:00:00 | |
| 9A1FER-10 | 2026-08-31 00:09:30 | 46.18022 | 20.48919 | 87° | 24km/h | 18303m | 5.1m/s | 0°C | 0% | 0hPa | 0V | 00:00:00 | 01:20:01 | 00:00:00 | |
| 9A1FER-3 | 2026-08-31 00:09:22 | 46.18008 | 20.48857 | 61° | 20km/h | 18262m | 5.0m/s | 0°C | 0% | 0hPa | 0V | 00:00:00 | 01:19:53 | 00:00:00 | |
| 9A1FER-10 | 2026-08-31 00:09:15 | 46.17996 | 20.48805 | 79° | 18km/h | 18224m | 4.2m/s | 0°C | 0% | 0hPa | 0V | 00:00:00 | 01:19:46 | 08:30:00 | |
| 9A1FER-3 | 2026-08-31 00:09:07 | 46.17985 | 20.48754 | 63° | 16km/h | 18181m | 6.5m/s | 0°C | 0% | 0hPa | 0V | 00:00:00 | 01:19:38 | 00:00:00 | |
| 9A1FER-3 | 2026-08-31 00:08:52 | 46.17957 | 20.48675 | 91° | 15km/h | 18101m | 6.0m/s | 0°C | 0% | 0hPa | 0V | 00:00:00 | 01:19:23 | 00:00:00 | |
| 9A1FER-10 | 2026-08-31 00:08:43 | 46.17956 | 20.48623 | 92° | 22km/h | 18050m | 5.5m/s | 0°C | 0% | 0hPa | 0V | 00:00:00 | 01:19:14 | 00:00:00 | |
| 9A1FER-3 | 2026-08-31 00:08:37 | 46.17961 | 20.48592 | 115° | 15km/h | 18017m | 4.6m/s | 0°C | 0% | 0hPa | 0V | 00:00:00 | 01:19:08 | 00:00:00 | |
| LZ4TU-5 | 2026-08-31 00:07:47 | 46.18017 | 20.48228 | 106° | 18km/h | 17758m | 4.6m/s | -58.4°C | 0% | 83.9hPa | 0V | 00:00:00 | 00:00:00 | 00:00:00 | |
| LZ4TU-5 | 2026-08-31 00:07:43 | 46.18020 | 20.48204 | 102° | 15km/h | 17736m | 5.3m/s | 0°C | 0% | 84.2hPa | 0V | 00:00:00 | 00:00:00 | 00:00:00 | |
| LZ4TU-5 | 2026-08-31 00:05:29 | 46.18316 | 20.46926 | 66° | 38km/h | 17049m | 5.7m/s | 0°C | 0% | 93.9hPa | 0V | 00:00:00 | 00:00:00 | 00:00:00 | |
| LZ4TU-5 | 2026-08-31 00:05:24 | 46.18297 | 20.46869 | 73° | 29km/h | 17023m | 6.1m/s | 0°C | 0% | 94.4hPa | 0V | 00:00:00 | 00:00:00 | 00:00:00 | |
| LZ4TU-5 | 2026-08-31 00:03:47 | 46.18028 | 20.45916 | 44° | 29km/h | 16516m | 5.4m/s | 0°C | 0% | 102.3hPa | 0V | 00:00:00 | 00:00:00 | 00:00:00 | |
| LZ4TU-5 | 2026-08-31 00:03:41 | 46.18005 | 20.45868 | 65° | 33km/h | 16488m | 5.0m/s | 0°C | 0% | 102.7hPa | 0V | 00:00:00 | 00:00:00 | 00:00:00 | |
| 9A1FER-10 | 2026-08-31 00:03:28 | 46.17926 | 20.45745 | 40° | 27km/h | 16410m | 5.1m/s | 0°C | 0% | 0hPa | 0V | 00:00:00 | 01:13:58 | 00:00:00 | |
| 9A1FER-10 | 2026-08-31 00:03:13 | 46.17853 | 20.45636 | 44° | 27km/h | 16323m | 6.2m/s | 0°C | 0% | 0hPa | 0V | 00:00:00 | 01:13:42 | 00:00:00 | |
| LZ4TU-5 | 2026-08-31 00:02:32 | 46.17797 | 20.44904 | 88° | 40km/h | 15958m | 4.7m/s | 0°C | 0% | 111.7hPa | 0V | 00:00:00 | 00:00:00 | 00:00:00 | |
| LZ4TU-5 | 2026-08-31 00:02:22 | 46.17793 | 20.44832 | 83° | 38km/h | 15933m | 4.9m/s | 0°C | 0% | 112.2hPa | 0V | 00:00:00 | 00:00:00 | 00:00:00 | |
| 9A1FER-10 | 2026-08-31 00:01:00 | 46.17775 | 20.44253 | 112° | 35km/h | 15603m | 6.2m/s | 0°C | 0% | 0hPa | 0V | 00:00:00 | 01:11:27 | 00:00:00 | |
| 9A1FER-10 | 2026-08-31 00:00:43 | 46.17821 | 20.44064 | 121° | 60km/h | 15512m | 6.0m/s | 0°C | 0% | 0hPa | 0V | 00:00:00 | 01:11:11 | 00:00:00 | |
| LZ4TU-5 | 2026-08-31 00:00:27 | 46.17907 | 20.43825 | 117° | 44km/h | 15434m | 4.4m/s | 0°C | 0% | 121.4hPa | 0V | 00:00:00 | 00:00:00 | 00:00:00 | |
| LZ4TU-5 | 2026-08-31 00:00:24 | 46.17924 | 20.43768 | 116° | 44km/h | 15413m | 4.5m/s | 0°C | 0% | 121.8hPa | 0V | 00:00:00 | 00:00:00 | 00:00:00 | |
| GYPAP8-17 | 2026-08-30 23:58:47 | 46.18398 | 20.42105 | 106° | 78km/h | 14920m | 5.5m/s | -58.4°C | 4.9% | 131.7hPa | 0V | 00:00:00 | 00:00:00 | 00:00:00 | |
| LZ4TU-5 | 2026-08-30 23:57:16 | 46.18663 | 20.39669 | 104° | 68km/h | 14476m | 5.8m/s | 0°C | 0% | 141.3hPa | 0V | 00:00:00 | 00:00:00 | 00:00:00 | |
| LZ4TU-5 | 2026-08-30 23:57:13 | 46.18673 | 20.39576 | 96° | 66km/h | 14456m | 4.0m/s | 0°C | 0% | 141.8hPa | 0V | 00:00:00 | 00:00:00 | 00:00:00 | |
| LZ4TU-5 | 2026-08-30 23:55:40 | 46.18942 | 20.37321 | 95° | 71km/h | 13992m | 3.4m/s | 0°C | 0% | 152.7hPa | 0V | 00:00:00 | 00:00:00 | 00:00:00 | |
| LZ4TU-5 | 2026-08-30 23:55:36 | 46.18949 | 20.37227 | 102° | 64km/h | 13973m | 5.2m/s | 0°C | 0% | 153.2hPa | 0V | 00:00:00 | 00:00:00 | 00:00:00 | |
| LZ4TU-5 | 2026-08-30 23:54:04 | 46.19360 | 20.35012 | 111° | 77km/h | 13395m | 6.6m/s | 0°C | 0% | 167.9hPa | 0V | 00:00:00 | 00:00:00 | 00:00:00 | |
| 9A1FER-10 | 2026-08-30 23:54:03 | 46.19371 | 20.34958 | 104° | 68km/h | 13382m | 4.2m/s | 0°C | 0% | 0hPa | 0V | 00:00:00 | 01:04:34 | 00:00:00 | |
| LZ4TU-5 | 2026-08-30 23:54:00 | 46.19383 | 20.34882 | 105° | 66km/h | 13363m | 5.7m/s | 0°C | 0% | 168.7hPa | 0V | 00:00:00 | 00:00:00 | 00:00:00 | |
| 9A1FER-10 | 2026-08-30 23:53:47 | 46.19456 | 20.34580 | 104° | 64km/h | 13294m | 4.5m/s | 0°C | 0% | 0hPa | 0V | 00:00:00 | 01:04:18 | 00:00:00 | |
| 9A1FER-10 | 2026-08-30 23:53:32 | 46.19527 | 20.34250 | 104° | 57km/h | 13217m | 5.7m/s | 0°C | 0% | 0hPa | 0V | 00:00:00 | 01:04:03 | 00:00:00 | |
| LZ4TU-5 | 2026-08-30 23:52:20 | 46.19918 | 20.32957 | 115° | 68km/h | 12813m | 5.7m/s | 0°C | 0% | 184.0hPa | 0V | 00:00:00 | 00:00:00 | 00:00:00 | |
| LZ4TU-5 | 2026-08-30 23:52:16 | 46.19949 | 20.32868 | 120° | 69km/h | 12786m | 9.2m/s | 0°C | 0% | 184.9hPa | 0V | 00:00:00 | 00:00:00 | 00:00:00 | |
| LZ4TU-5 | 2026-08-30 23:50:34 | 46.20893 | 20.30567 | 118° | 77km/h | 12209m | 6.4m/s | 0°C | 0% | 202.6hPa | 0V | 00:00:00 | 00:00:00 | 00:00:00 | |
| LZ4TU-5 | 2026-08-30 23:50:30 | 46.20930 | 20.30464 | 117° | 78km/h | 12187m | 5.6m/s | 0°C | 0% | 203.3hPa | 0V | 00:00:00 | 00:00:00 | 00:00:00 | |
| LZ4TU-5 | 2026-08-30 23:48:50 | 46.21636 | 20.27963 | 119° | 69km/h | 11637m | 3.8m/s | 0°C | 0% | 221.7hPa | 0V | 00:00:00 | 00:00:00 | 00:00:00 | |
| LZ4TU-5 | 2026-08-30 23:48:46 | 46.21675 | 20.27847 | 112° | 64km/h | 11611m | 7.8m/s | 0°C | 0% | 0hPa | 0V | 00:00:00 | 00:00:00 | 00:00:00 | |
| LZ4TU-5 | 2026-08-30 23:47:03 | 46.22408 | 20.25850 | 113° | 46km/h | 11021m | 4.9m/s | 0°C | 0% | 0hPa | 0V | 00:00:00 | 00:00:00 | 00:00:00 | |
| LZ4TU-5 | 2026-08-30 23:46:59 | 46.22427 | 20.25786 | 118° | 49km/h | 10996m | 6.5m/s | 0°C | 0% | 0hPa | 0V | 00:00:00 | 00:00:00 | 00:00:00 | |
| LZ4TU-5 | 2026-08-30 23:44:55 | 46.23172 | 20.23563 | 118° | 42km/h | 10260m | 8.7m/s | 0°C | 0% | 0hPa | 0V | 00:00:00 | 00:00:00 | 00:00:00 | |
| LZ4TU-5 | 2026-08-30 23:44:47 | 46.23208 | 20.23429 | 108° | 53km/h | 10214m | 6.6m/s | 0°C | 0% | 0hPa | 0V | 00:00:00 | 00:00:00 | 00:00:00 | |
| GYPAP8-17 | 2026-08-30 23:44:16 | 46.23379 | 20.22824 | 110° | 53km/h | 10014m | 4.9m/s | -41.2°C | 33.0% | 283.4hPa | 0V | 00:00:00 | 00:00:00 | 00:00:00 | |
| GYPAP8-17 | 2026-08-30 23:38:52 | 46.25481 | 20.16926 | 109° | 53km/h | 8103m | 7.4m/s | 0°C | 0% | 0hPa | 0V | 00:00:00 | 00:00:00 | 00:00:00 | |
| GYPAP8-17 | 2026-08-30 23:34:45 | 46.26179 | 20.13719 | 97° | 16km/h | 6674m | 5.1m/s | 0°C | 0% | 0hPa | 0V | 00:00:00 | 00:00:00 | 00:00:00 |